sensor_id;sensor_type;location;lat;lon;timestamp;temperature;humidity
16643;DHT22;8435;52.184;5.406;2022-09-24T00:02:11;17.50;99.40
16643;DHT22;8435;52.184;5.406;2022-09-24T00:04:38;17.50;99.20
16643;DHT22;8435;52.184;5.406;2022-09-24T00:07:06;17.50;99.20
16643;DHT22;8435;52.184;5.406;2022-09-24T00:09:33;17.50;99.20
16643;DHT22;8435;52.184;5.406;2022-09-24T00:12:02;17.50;99.30
16643;DHT22;8435;52.184;5.406;2022-09-24T00:14:32;17.50;99.30
16643;DHT22;8435;52.184;5.406;2022-09-24T00:16:59;17.50;99.30
16643;DHT22;8435;52.184;5.406;2022-09-24T00:19:35;17.50;99.30
16643;DHT22;8435;52.184;5.406;2022-09-24T00:22:02;17.50;99.60
16643;DHT22;8435;52.184;5.406;2022-09-24T00:24:29;17.50;99.30
16643;DHT22;8435;52.184;5.406;2022-09-24T00:27:18;17.50;99.30
16643;DHT22;8435;52.184;5.406;2022-09-24T00:29:44;17.50;99.50
16643;DHT22;8435;52.184;5.406;2022-09-24T00:32:11;17.50;99.40
16643;DHT22;8435;52.184;5.406;2022-09-24T00:34:38;17.50;99.40
16643;DHT22;8435;52.184;5.406;2022-09-24T00:37:05;17.50;99.40
16643;DHT22;8435;52.184;5.406;2022-09-24T00:39:35;17.50;99.50
16643;DHT22;8435;52.184;5.406;2022-09-24T00:42:03;17.40;99.60
16643;DHT22;8435;52.184;5.406;2022-09-24T00:44:47;17.40;99.60
16643;DHT22;8435;52.184;5.406;2022-09-24T00:47:30;17.40;99.90
16643;DHT22;8435;52.184;5.406;2022-09-24T00:50:05;17.40;99.80
16643;DHT22;8435;52.184;5.406;2022-09-24T00:52:39;17.40;99.80
16643;DHT22;8435;52.184;5.406;2022-09-24T00:55:08;17.40;99.70
16643;DHT22;8435;52.184;5.406;2022-09-24T00:57:36;17.40;99.90
16643;DHT22;8435;52.184;5.406;2022-09-24T01:00:28;17.40;99.90
16643;DHT22;8435;52.184;5.406;2022-09-24T01:03:13;17.30;99.90
16643;DHT22;8435;52.184;5.406;2022-09-24T01:05:46;17.30;99.90
16643;DHT22;8435;52.184;5.406;2022-09-24T01:08:22;17.30;99.80
16643;DHT22;8435;52.184;5.406;2022-09-24T01:10:59;17.30;99.90
16643;DHT22;8435;52.184;5.406;2022-09-24T01:14:06;17.30;99.90
16643;DHT22;8435;52.184;5.406;2022-09-24T01:17:09;17.20;99.90
16643;DHT22;8435;52.184;5.406;2022-09-24T01:20:02;17.20;99.90
16643;DHT22;8435;52.184;5.406;2022-09-24T01:22:48;17.20;99.90
16643;DHT22;8435;52.184;5.406;2022-09-24T01:25:20;17.20;99.90
16643;DHT22;8435;52.184;5.406;2022-09-24T01:28:22;17.20;99.90
16643;DHT22;8435;52.184;5.406;2022-09-24T01:31:38;17.20;99.90
16643;DHT22;8435;52.184;5.406;2022-09-24T01:34:10;17.10;99.90
16643;DHT22;8435;52.184;5.406;2022-09-24T01:36:54;17.10;99.90
16643;DHT22;8435;52.184;5.406;2022-09-24T01:42:18;17.10;99.90
16643;DHT22;8435;52.184;5.406;2022-09-24T01:45:02;17.10;99.90
16643;DHT22;8435;52.184;5.406;2022-09-24T02:00:27;17.00;99.90
16643;DHT22;8435;52.184;5.406;2022-09-24T02:03:11;16.90;99.90
16643;DHT22;8435;52.184;5.406;2022-09-24T02:05:59;16.90;99.90
16643;DHT22;8435;52.184;5.406;2022-09-24T02:08:30;16.90;99.90
16643;DHT22;8435;52.184;5.406;2022-09-24T02:11:01;16.90;99.90
16643;DHT22;8435;52.184;5.406;2022-09-24T02:13:33;16.90;99.90
16643;DHT22;8435;52.184;5.406;2022-09-24T02:16:04;16.80;99.90
16643;DHT22;8435;52.184;5.406;2022-09-24T02:18:35;16.90;99.90
16643;DHT22;8435;52.184;5.406;2022-09-24T02:24:39;16.80;99.90
16643;DHT22;8435;52.184;5.406;2022-09-24T02:27:08;16.80;99.90
16643;DHT22;8435;52.184;5.406;2022-09-24T02:29:36;16.80;99.90
16643;DHT22;8435;52.184;5.406;2022-09-24T02:32:04;16.70;99.90
16643;DHT22;8435;52.184;5.406;2022-09-24T02:34:35;16.70;99.90
16643;DHT22;8435;52.184;5.406;2022-09-24T02:37:20;16.70;99.90
16643;DHT22;8435;52.184;5.406;2022-09-24T02:39:51;16.70;99.90
16643;DHT22;8435;52.184;5.406;2022-09-24T02:42:18;16.70;99.90
16643;DHT22;8435;52.184;5.406;2022-09-24T02:44:47;16.70;99.90
16643;DHT22;8435;52.184;5.406;2022-09-24T02:47:14;16.70;99.90
16643;DHT22;8435;52.184;5.406;2022-09-24T02:49:41;16.70;99.90
16643;DHT22;8435;52.184;5.406;2022-09-24T02:52:08;16.60;99.90
16643;DHT22;8435;52.184;5.406;2022-09-24T02:54:36;16.60;99.90
16643;DHT22;8435;52.184;5.406;2022-09-24T02:57:07;16.60;99.90
16643;DHT22;8435;52.184;5.406;2022-09-24T02:59:34;16.60;99.90
16643;DHT22;8435;52.184;5.406;2022-09-24T03:02:01;16.60;99.90
16643;DHT22;8435;52.184;5.406;2022-09-24T03:04:44;16.60;99.90
16643;DHT22;8435;52.184;5.406;2022-09-24T03:07:12;16.60;99.90
16643;DHT22;8435;52.184;5.406;2022-09-24T03:09:42;16.60;99.90
16643;DHT22;8435;52.184;5.406;2022-09-24T03:12:16;16.60;99.90
16643;DHT22;8435;52.184;5.406;2022-09-24T03:14:43;16.60;99.90
16643;DHT22;8435;52.184;5.406;2022-09-24T03:17:11;16.60;99.90
16643;DHT22;8435;52.184;5.406;2022-09-24T03:19:38;16.60;99.90
16643;DHT22;8435;52.184;5.406;2022-09-24T03:22:06;16.60;99.90
16643;DHT22;8435;52.184;5.406;2022-09-24T03:24:33;16.60;99.90
16643;DHT22;8435;52.184;5.406;2022-09-24T03:27:03;16.60;99.90
16643;DHT22;8435;52.184;5.406;2022-09-24T03:29:52;16.60;99.90
16643;DHT22;8435;52.184;5.406;2022-09-24T03:32:37;16.50;99.90
16643;DHT22;8435;52.184;5.406;2022-09-24T03:37:51;16.50;99.90
16643;DHT22;8435;52.184;5.406;2022-09-24T03:40:20;16.50;99.90
16643;DHT22;8435;52.184;5.406;2022-09-24T03:43:10;16.50;99.90
16643;DHT22;8435;52.184;5.406;2022-09-24T03:45:44;16.50;99.90
16643;DHT22;8435;52.184;5.406;2022-09-24T03:48:32;16.50;99.90
16643;DHT22;8435;52.184;5.406;2022-09-24T03:51:03;16.40;99.90
16643;DHT22;8435;52.184;5.406;2022-09-24T03:53:33;16.40;99.90
16643;DHT22;8435;52.184;5.406;2022-09-24T03:56:00;16.40;99.90
16643;DHT22;8435;52.184;5.406;2022-09-24T03:58:28;16.40;99.90
16643;DHT22;8435;52.184;5.406;2022-09-24T04:00:57;16.40;99.90
16643;DHT22;8435;52.184;5.406;2022-09-24T04:03:25;16.40;99.90
16643;DHT22;8435;52.184;5.406;2022-09-24T04:05:52;16.40;99.90
16643;DHT22;8435;52.184;5.406;2022-09-24T04:08:41;16.40;99.90
16643;DHT22;8435;52.184;5.406;2022-09-24T04:11:11;16.40;99.90
16643;DHT22;8435;52.184;5.406;2022-09-24T04:13:47;16.40;99.90
16643;DHT22;8435;52.184;5.406;2022-09-24T04:16:21;16.30;99.90
16643;DHT22;8435;52.184;5.406;2022-09-24T04:19:01;16.40;99.90
16643;DHT22;8435;52.184;5.406;2022-09-24T04:21:34;16.40;99.90
16643;DHT22;8435;52.184;5.406;2022-09-24T04:24:05;16.40;99.90
16643;DHT22;8435;52.184;5.406;2022-09-24T04:26:32;16.40;99.90
16643;DHT22;8435;52.184;5.406;2022-09-24T04:28:59;16.40;99.90
16643;DHT22;8435;52.184;5.406;2022-09-24T04:31:28;16.40;99.90
16643;DHT22;8435;52.184;5.406;2022-09-24T04:33:57;16.40;99.90
16643;DHT22;8435;52.184;5.406;2022-09-24T04:36:24;16.30;99.90
16643;DHT22;8435;52.184;5.406;2022-09-24T04:38:57;16.30;99.90
16643;DHT22;8435;52.184;5.406;2022-09-24T04:41:39;16.30;99.90
16643;DHT22;8435;52.184;5.406;2022-09-24T04:47:01;16.30;99.90
16643;DHT22;8435;52.184;5.406;2022-09-24T04:49:29;16.30;99.90
16643;DHT22;8435;52.184;5.406;2022-09-24T04:51:56;16.30;99.90
16643;DHT22;8435;52.184;5.406;2022-09-24T04:54:23;16.30;99.90
16643;DHT22;8435;52.184;5.406;2022-09-24T04:56:51;16.30;99.90
16643;DHT22;8435;52.184;5.406;2022-09-24T04:59:18;16.30;99.90
16643;DHT22;8435;52.184;5.406;2022-09-24T05:01:45;16.30;99.90
16643;DHT22;8435;52.184;5.406;2022-09-24T05:04:16;16.30;99.90
16643;DHT22;8435;52.184;5.406;2022-09-24T05:06:43;16.30;99.90
16643;DHT22;8435;52.184;5.406;2022-09-24T05:09:10;16.30;99.90
16643;DHT22;8435;52.184;5.406;2022-09-24T05:11:37;16.30;99.90
16643;DHT22;8435;52.184;5.406;2022-09-24T05:14:04;16.30;99.90
16643;DHT22;8435;52.184;5.406;2022-09-24T05:16:32;16.30;99.90
16643;DHT22;8435;52.184;5.406;2022-09-24T05:19:00;16.30;99.90
16643;DHT22;8435;52.184;5.406;2022-09-24T05:21:30;16.30;99.90
16643;DHT22;8435;52.184;5.406;2022-09-24T05:23:57;16.30;99.90
16643;DHT22;8435;52.184;5.406;2022-09-24T05:26:24;16.30;99.90
16643;DHT22;8435;52.184;5.406;2022-09-24T05:29:09;16.30;99.90
16643;DHT22;8435;52.184;5.406;2022-09-24T05:31:38;16.30;99.90
16643;DHT22;8435;52.184;5.406;2022-09-24T05:34:05;16.30;99.90
16643;DHT22;8435;52.184;5.406;2022-09-24T05:36:36;16.30;99.90
16643;DHT22;8435;52.184;5.406;2022-09-24T05:39:10;16.30;99.90
16643;DHT22;8435;52.184;5.406;2022-09-24T05:41:43;16.30;99.90
16643;DHT22;8435;52.184;5.406;2022-09-24T05:44:10;16.30;99.90
16643;DHT22;8435;52.184;5.406;2022-09-24T05:46:37;16.30;99.90
16643;DHT22;8435;52.184;5.406;2022-09-24T05:49:04;16.30;99.90
16643;DHT22;8435;52.184;5.406;2022-09-24T05:51:30;16.30;99.90
16643;DHT22;8435;52.184;5.406;2022-09-24T05:53:59;16.30;99.90
16643;DHT22;8435;52.184;5.406;2022-09-24T05:56:25;16.30;99.90
16643;DHT22;8435;52.184;5.406;2022-09-24T05:58:52;16.30;99.90
16643;DHT22;8435;52.184;5.406;2022-09-24T06:01:19;16.20;99.90
16643;DHT22;8435;52.184;5.406;2022-09-24T06:03:46;16.20;99.90
16643;DHT22;8435;52.184;5.406;2022-09-24T06:06:13;16.20;99.90
16643;DHT22;8435;52.184;5.406;2022-09-24T06:08:39;16.20;99.90
16643;DHT22;8435;52.184;5.406;2022-09-24T06:11:08;16.20;99.90
16643;DHT22;8435;52.184;5.406;2022-09-24T06:13:35;16.20;99.90
16643;DHT22;8435;52.184;5.406;2022-09-24T06:16:03;16.20;99.90
16643;DHT22;8435;52.184;5.406;2022-09-24T06:18:32;16.20;99.90
16643;DHT22;8435;52.184;5.406;2022-09-24T06:21:00;16.20;99.90
16643;DHT22;8435;52.184;5.406;2022-09-24T06:23:28;16.20;99.90
16643;DHT22;8435;52.184;5.406;2022-09-24T06:25:55;16.20;99.90
16643;DHT22;8435;52.184;5.406;2022-09-24T06:28:23;16.20;99.90
16643;DHT22;8435;52.184;5.406;2022-09-24T06:30:51;16.30;99.90
16643;DHT22;8435;52.184;5.406;2022-09-24T06:33:18;16.30;99.90
16643;DHT22;8435;52.184;5.406;2022-09-24T06:35:46;16.30;99.90
16643;DHT22;8435;52.184;5.406;2022-09-24T06:38:16;16.30;99.90
16643;DHT22;8435;52.184;5.406;2022-09-24T06:40:44;16.30;99.90
16643;DHT22;8435;52.184;5.406;2022-09-24T06:43:13;16.40;99.90
16643;DHT22;8435;52.184;5.406;2022-09-24T06:45:44;16.40;99.90
16643;DHT22;8435;52.184;5.406;2022-09-24T06:48:12;16.40;99.90
16643;DHT22;8435;52.184;5.406;2022-09-24T06:50:42;16.40;99.90
16643;DHT22;8435;52.184;5.406;2022-09-24T06:53:11;16.40;99.90
16643;DHT22;8435;52.184;5.406;2022-09-24T06:55:39;16.40;99.90
16643;DHT22;8435;52.184;5.406;2022-09-24T06:58:08;16.40;99.90
16643;DHT22;8435;52.184;5.406;2022-09-24T07:00:35;16.50;99.90
16643;DHT22;8435;52.184;5.406;2022-09-24T07:03:05;16.50;99.90
16643;DHT22;8435;52.184;5.406;2022-09-24T07:05:33;16.50;99.90
16643;DHT22;8435;52.184;5.406;2022-09-24T07:08:00;16.50;99.90
16643;DHT22;8435;52.184;5.406;2022-09-24T07:10:27;16.50;99.90
16643;DHT22;8435;52.184;5.406;2022-09-24T07:12:56;16.50;99.90
16643;DHT22;8435;52.184;5.406;2022-09-24T07:15:23;16.60;99.90
16643;DHT22;8435;52.184;5.406;2022-09-24T07:17:54;16.60;99.90
16643;DHT22;8435;52.184;5.406;2022-09-24T07:20:22;16.60;99.90
16643;DHT22;8435;52.184;5.406;2022-09-24T07:22:52;16.70;99.90
16643;DHT22;8435;52.184;5.406;2022-09-24T07:25:19;16.70;99.90
16643;DHT22;8435;52.184;5.406;2022-09-24T07:27:46;16.70;99.90
16643;DHT22;8435;52.184;5.406;2022-09-24T07:30:14;16.70;99.90
16643;DHT22;8435;52.184;5.406;2022-09-24T07:32:41;16.70;99.90
16643;DHT22;8435;52.184;5.406;2022-09-24T07:35:08;16.80;99.90
16643;DHT22;8435;52.184;5.406;2022-09-24T07:37:36;16.80;99.90
16643;DHT22;8435;52.184;5.406;2022-09-24T07:40:04;16.80;99.90
16643;DHT22;8435;52.184;5.406;2022-09-24T07:42:31;16.90;99.90
16643;DHT22;8435;52.184;5.406;2022-09-24T07:44:58;16.90;99.90
16643;DHT22;8435;52.184;5.406;2022-09-24T07:47:27;16.90;99.90
16643;DHT22;8435;52.184;5.406;2022-09-24T07:49:54;17.00;99.90
16643;DHT22;8435;52.184;5.406;2022-09-24T07:52:21;17.00;99.90
16643;DHT22;8435;52.184;5.406;2022-09-24T07:54:49;17.00;99.90
16643;DHT22;8435;52.184;5.406;2022-09-24T07:57:16;17.10;99.90
16643;DHT22;8435;52.184;5.406;2022-09-24T07:59:43;17.10;99.90
16643;DHT22;8435;52.184;5.406;2022-09-24T08:02:14;17.10;99.90
16643;DHT22;8435;52.184;5.406;2022-09-24T08:04:42;17.10;99.90
16643;DHT22;8435;52.184;5.406;2022-09-24T08:07:10;17.20;99.90
16643;DHT22;8435;52.184;5.406;2022-09-24T08:09:37;17.20;99.90
16643;DHT22;8435;52.184;5.406;2022-09-24T08:12:06;17.20;99.90
16643;DHT22;8435;52.184;5.406;2022-09-24T08:14:34;17.20;99.90
16643;DHT22;8435;52.184;5.406;2022-09-24T08:17:00;17.20;99.90
16643;DHT22;8435;52.184;5.406;2022-09-24T08:19:28;17.20;99.90
16643;DHT22;8435;52.184;5.406;2022-09-24T08:21:55;17.20;99.90
16643;DHT22;8435;52.184;5.406;2022-09-24T08:24:22;17.20;99.90
16643;DHT22;8435;52.184;5.406;2022-09-24T08:26:49;17.30;99.90
16643;DHT22;8435;52.184;5.406;2022-09-24T08:29:18;17.30;99.90
16643;DHT22;8435;52.184;5.406;2022-09-24T08:31:44;17.30;99.90
16643;DHT22;8435;52.184;5.406;2022-09-24T08:34:12;17.30;99.90
16643;DHT22;8435;52.184;5.406;2022-09-24T08:36:39;17.30;99.90
16643;DHT22;8435;52.184;5.406;2022-09-24T08:39:06;17.30;99.90
16643;DHT22;8435;52.184;5.406;2022-09-24T08:41:47;17.30;99.90
16643;DHT22;8435;52.184;5.406;2022-09-24T08:44:21;17.30;99.90
16643;DHT22;8435;52.184;5.406;2022-09-24T08:47:09;17.30;99.90
16643;DHT22;8435;52.184;5.406;2022-09-24T08:50:06;17.30;99.90
16643;DHT22;8435;52.184;5.406;2022-09-24T08:52:57;17.30;99.90
16643;DHT22;8435;52.184;5.406;2022-09-24T08:55:34;17.30;99.90
16643;DHT22;8435;52.184;5.406;2022-09-24T08:58:14;17.30;99.90
16643;DHT22;8435;52.184;5.406;2022-09-24T09:00:50;17.30;99.90
16643;DHT22;8435;52.184;5.406;2022-09-24T09:03:29;17.30;99.90
16643;DHT22;8435;52.184;5.406;2022-09-24T09:06:00;17.30;99.90
16643;DHT22;8435;52.184;5.406;2022-09-24T09:08:36;17.40;99.90
16643;DHT22;8435;52.184;5.406;2022-09-24T09:11:08;17.30;99.90
16643;DHT22;8435;52.184;5.406;2022-09-24T09:13:39;17.40;99.90
16643;DHT22;8435;52.184;5.406;2022-09-24T09:16:19;17.40;99.90
16643;DHT22;8435;52.184;5.406;2022-09-24T09:18:49;17.40;99.90
16643;DHT22;8435;52.184;5.406;2022-09-24T09:21:21;17.40;99.90
16643;DHT22;8435;52.184;5.406;2022-09-24T09:23:52;17.40;99.90
16643;DHT22;8435;52.184;5.406;2022-09-24T09:26:20;17.40;99.90
16643;DHT22;8435;52.184;5.406;2022-09-24T09:28:49;17.40;99.90
16643;DHT22;8435;52.184;5.406;2022-09-24T09:31:27;17.40;99.90
16643;DHT22;8435;52.184;5.406;2022-09-24T09:34:08;17.40;99.90
16643;DHT22;8435;52.184;5.406;2022-09-24T09:36:53;17.40;99.90
16643;DHT22;8435;52.184;5.406;2022-09-24T09:39:33;17.40;99.90
16643;DHT22;8435;52.184;5.406;2022-09-24T09:42:12;17.40;99.90
16643;DHT22;8435;52.184;5.406;2022-09-24T09:44:42;17.40;99.90
16643;DHT22;8435;52.184;5.406;2022-09-24T09:47:18;17.40;99.90
16643;DHT22;8435;52.184;5.406;2022-09-24T09:49:51;17.40;99.90
16643;DHT22;8435;52.184;5.406;2022-09-24T09:52:23;17.30;99.90
16643;DHT22;8435;52.184;5.406;2022-09-24T09:54:52;17.30;99.90
16643;DHT22;8435;52.184;5.406;2022-09-24T09:57:22;17.30;99.90
16643;DHT22;8435;52.184;5.406;2022-09-24T09:59:50;17.30;99.90
16643;DHT22;8435;52.184;5.406;2022-09-24T10:02:23;17.30;99.90
16643;DHT22;8435;52.184;5.406;2022-09-24T10:04:53;17.20;99.90
16643;DHT22;8435;52.184;5.406;2022-09-24T10:07:21;17.20;99.90
16643;DHT22;8435;52.184;5.406;2022-09-24T10:10:00;17.20;99.90
16643;DHT22;8435;52.184;5.406;2022-09-24T10:12:29;17.20;99.90
16643;DHT22;8435;52.184;5.406;2022-09-24T10:14:58;17.20;99.90
16643;DHT22;8435;52.184;5.406;2022-09-24T10:17:29;17.10;99.90
16643;DHT22;8435;52.184;5.406;2022-09-24T10:19:59;17.10;99.90
16643;DHT22;8435;52.184;5.406;2022-09-24T10:22:29;17.10;99.90
16643;DHT22;8435;52.184;5.406;2022-09-24T10:24:58;17.10;99.90
16643;DHT22;8435;52.184;5.406;2022-09-24T10:27:30;17.10;99.90
16643;DHT22;8435;52.184;5.406;2022-09-24T10:30:03;17.20;99.90
16643;DHT22;8435;52.184;5.406;2022-09-24T10:32:57;17.20;99.90
16643;DHT22;8435;52.184;5.406;2022-09-24T10:35:29;17.30;99.90
16643;DHT22;8435;52.184;5.406;2022-09-24T10:38:02;17.30;99.90
16643;DHT22;8435;52.184;5.406;2022-09-24T10:40:40;17.30;99.90
16643;DHT22;8435;52.184;5.406;2022-09-24T10:43:15;17.30;99.90
16643;DHT22;8435;52.184;5.406;2022-09-24T10:46:08;17.30;99.90
16643;DHT22;8435;52.184;5.406;2022-09-24T10:48:42;17.30;99.90
16643;DHT22;8435;52.184;5.406;2022-09-24T10:51:23;17.30;99.90
16643;DHT22;8435;52.184;5.406;2022-09-24T10:54:03;17.30;99.90
16643;DHT22;8435;52.184;5.406;2022-09-24T10:56:37;17.30;99.90
16643;DHT22;8435;52.184;5.406;2022-09-24T10:59:28;17.40;99.90
16643;DHT22;8435;52.184;5.406;2022-09-24T11:02:06;17.30;99.90
16643;DHT22;8435;52.184;5.406;2022-09-24T11:04:49;17.30;99.90
16643;DHT22;8435;52.184;5.406;2022-09-24T11:10:42;17.30;99.90
16643;DHT22;8435;52.184;5.406;2022-09-24T11:13:16;17.30;99.90
16643;DHT22;8435;52.184;5.406;2022-09-24T11:16:04;17.30;99.90
16643;DHT22;8435;52.184;5.406;2022-09-24T11:18:42;17.20;99.90
16643;DHT22;8435;52.184;5.406;2022-09-24T11:21:33;17.20;99.90
16643;DHT22;8435;52.184;5.406;2022-09-24T11:24:31;17.30;99.90
16643;DHT22;8435;52.184;5.406;2022-09-24T11:27:12;17.30;99.90
16643;DHT22;8435;52.184;5.406;2022-09-24T11:29:52;17.30;99.90
16643;DHT22;8435;52.184;5.406;2022-09-24T11:32:25;17.30;99.90
16643;DHT22;8435;52.184;5.406;2022-09-24T11:35:19;17.30;99.90
16643;DHT22;8435;52.184;5.406;2022-09-24T11:37:57;17.30;99.90
16643;DHT22;8435;52.184;5.406;2022-09-24T11:43:38;17.30;99.90
16643;DHT22;8435;52.184;5.406;2022-09-24T11:46:17;17.20;99.90
16643;DHT22;8435;52.184;5.406;2022-09-24T11:49:04;17.20;99.90
16643;DHT22;8435;52.184;5.406;2022-09-24T11:51:42;17.20;99.90
16643;DHT22;8435;52.184;5.406;2022-09-24T11:54:19;17.20;99.90
16643;DHT22;8435;52.184;5.406;2022-09-24T11:56:54;17.20;99.90
16643;DHT22;8435;52.184;5.406;2022-09-24T11:59:32;17.20;99.90
16643;DHT22;8435;52.184;5.406;2022-09-24T12:02:04;17.20;99.90
16643;DHT22;8435;52.184;5.406;2022-09-24T12:04:45;17.20;99.90
16643;DHT22;8435;52.184;5.406;2022-09-24T12:07:16;17.20;99.90
16643;DHT22;8435;52.184;5.406;2022-09-24T12:09:50;17.30;99.90
16643;DHT22;8435;52.184;5.406;2022-09-24T12:12:20;17.30;99.90
16643;DHT22;8435;52.184;5.406;2022-09-24T12:14:53;17.30;99.90
16643;DHT22;8435;52.184;5.406;2022-09-24T12:17:26;17.30;99.90
16643;DHT22;8435;52.184;5.406;2022-09-24T12:19:57;17.30;99.90
16643;DHT22;8435;52.184;5.406;2022-09-24T12:22:25;17.30;99.90
16643;DHT22;8435;52.184;5.406;2022-09-24T12:24:57;17.40;99.90
16643;DHT22;8435;52.184;5.406;2022-09-24T12:27:32;17.40;99.90
16643;DHT22;8435;52.184;5.406;2022-09-24T12:30:05;17.40;99.90
16643;DHT22;8435;52.184;5.406;2022-09-24T12:33:00;17.40;99.90
16643;DHT22;8435;52.184;5.406;2022-09-24T12:35:35;17.40;99.90
16643;DHT22;8435;52.184;5.406;2022-09-24T12:38:09;17.40;99.90
16643;DHT22;8435;52.184;5.406;2022-09-24T12:41:10;17.50;99.90
16643;DHT22;8435;52.184;5.406;2022-09-24T12:43:43;17.50;99.90
16643;DHT22;8435;52.184;5.406;2022-09-24T12:46:16;17.50;99.90
16643;DHT22;8435;52.184;5.406;2022-09-24T12:48:44;17.50;99.90
16643;DHT22;8435;52.184;5.406;2022-09-24T12:51:12;17.50;99.90
16643;DHT22;8435;52.184;5.406;2022-09-24T12:53:53;17.60;99.90
16643;DHT22;8435;52.184;5.406;2022-09-24T12:56:27;17.60;99.90
16643;DHT22;8435;52.184;5.406;2022-09-24T12:58:55;17.60;99.90
16643;DHT22;8435;52.184;5.406;2022-09-24T13:01:28;17.60;99.90
16643;DHT22;8435;52.184;5.406;2022-09-24T13:04:24;17.60;99.90
16643;DHT22;8435;52.184;5.406;2022-09-24T13:06:52;17.60;99.90
16643;DHT22;8435;52.184;5.406;2022-09-24T13:09:31;17.50;99.90
16643;DHT22;8435;52.184;5.406;2022-09-24T13:12:19;17.50;99.90
16643;DHT22;8435;52.184;5.406;2022-09-24T13:14:53;17.50;99.90
16643;DHT22;8435;52.184;5.406;2022-09-24T13:17:23;17.50;99.90
16643;DHT22;8435;52.184;5.406;2022-09-24T13:19:56;17.50;99.90
16643;DHT22;8435;52.184;5.406;2022-09-24T13:22:32;17.50;99.90
16643;DHT22;8435;52.184;5.406;2022-09-24T13:25:19;17.50;99.90
16643;DHT22;8435;52.184;5.406;2022-09-24T13:27:59;17.50;99.90
16643;DHT22;8435;52.184;5.406;2022-09-24T13:30:37;17.50;99.90
16643;DHT22;8435;52.184;5.406;2022-09-24T13:33:19;17.50;99.90
16643;DHT22;8435;52.184;5.406;2022-09-24T13:35:59;17.50;99.90
16643;DHT22;8435;52.184;5.406;2022-09-24T13:38:29;17.60;99.90
16643;DHT22;8435;52.184;5.406;2022-09-24T13:41:05;17.60;99.90
16643;DHT22;8435;52.184;5.406;2022-09-24T13:43:44;17.60;99.90
16643;DHT22;8435;52.184;5.406;2022-09-24T13:46:14;17.60;99.90
16643;DHT22;8435;52.184;5.406;2022-09-24T13:48:47;17.60;99.90
16643;DHT22;8435;52.184;5.406;2022-09-24T13:51:16;17.60;99.90
16643;DHT22;8435;52.184;5.406;2022-09-24T13:53:48;17.60;99.90
16643;DHT22;8435;52.184;5.406;2022-09-24T13:56:18;17.60;99.90
16643;DHT22;8435;52.184;5.406;2022-09-24T13:58:47;17.60;99.90
16643;DHT22;8435;52.184;5.406;2022-09-24T14:01:18;17.60;99.90
16643;DHT22;8435;52.184;5.406;2022-09-24T14:03:52;17.70;99.90
16643;DHT22;8435;52.184;5.406;2022-09-24T14:06:28;17.70;99.90
16643;DHT22;8435;52.184;5.406;2022-09-24T14:08:57;17.70;99.90
16643;DHT22;8435;52.184;5.406;2022-09-24T14:11:25;17.70;99.90
16643;DHT22;8435;52.184;5.406;2022-09-24T14:13:54;17.70;99.90
16643;DHT22;8435;52.184;5.406;2022-09-24T14:16:22;17.70;99.90
16643;DHT22;8435;52.184;5.406;2022-09-24T14:19:00;17.70;99.90
16643;DHT22;8435;52.184;5.406;2022-09-24T14:21:30;17.80;99.90
16643;DHT22;8435;52.184;5.406;2022-09-24T14:24:03;17.80;99.90
16643;DHT22;8435;52.184;5.406;2022-09-24T14:26:32;17.80;99.90
16643;DHT22;8435;52.184;5.406;2022-09-24T14:29:06;17.80;99.90
16643;DHT22;8435;52.184;5.406;2022-09-24T14:31:42;17.80;99.90
16643;DHT22;8435;52.184;5.406;2022-09-24T14:34:23;17.80;99.90
16643;DHT22;8435;52.184;5.406;2022-09-24T14:36:54;17.90;99.90
16643;DHT22;8435;52.184;5.406;2022-09-24T14:39:24;17.90;99.90
16643;DHT22;8435;52.184;5.406;2022-09-24T14:41:53;17.90;99.90
16643;DHT22;8435;52.184;5.406;2022-09-24T14:44:29;17.90;99.90
16643;DHT22;8435;52.184;5.406;2022-09-24T14:46:57;17.90;99.90
16643;DHT22;8435;52.184;5.406;2022-09-24T14:49:30;17.90;99.90
16643;DHT22;8435;52.184;5.406;2022-09-24T14:51:59;17.90;99.90
16643;DHT22;8435;52.184;5.406;2022-09-24T14:54:30;18.00;99.90
16643;DHT22;8435;52.184;5.406;2022-09-24T14:57:09;18.00;99.90
16643;DHT22;8435;52.184;5.406;2022-09-24T14:59:57;18.00;99.90
16643;DHT22;8435;52.184;5.406;2022-09-24T15:02:36;17.90;99.90
16643;DHT22;8435;52.184;5.406;2022-09-24T15:05:07;17.90;99.90
16643;DHT22;8435;52.184;5.406;2022-09-24T15:07:37;17.90;99.90
16643;DHT22;8435;52.184;5.406;2022-09-24T15:10:24;17.90;99.90
16643;DHT22;8435;52.184;5.406;2022-09-24T15:13:00;17.80;99.90
16643;DHT22;8435;52.184;5.406;2022-09-24T15:15:40;17.80;99.90
16643;DHT22;8435;52.184;5.406;2022-09-24T15:18:09;17.80;99.90
16643;DHT22;8435;52.184;5.406;2022-09-24T15:20:36;17.80;99.90
16643;DHT22;8435;52.184;5.406;2022-09-24T15:23:04;17.70;99.90
16643;DHT22;8435;52.184;5.406;2022-09-24T15:25:31;17.70;99.90
16643;DHT22;8435;52.184;5.406;2022-09-24T15:27:59;17.70;99.90
16643;DHT22;8435;52.184;5.406;2022-09-24T15:30:27;17.60;99.90
16643;DHT22;8435;52.184;5.406;2022-09-24T15:33:03;17.60;99.90
16643;DHT22;8435;52.184;5.406;2022-09-24T15:35:31;17.60;99.90
16643;DHT22;8435;52.184;5.406;2022-09-24T15:38:00;17.60;99.90
16643;DHT22;8435;52.184;5.406;2022-09-24T15:40:28;17.60;99.90
16643;DHT22;8435;52.184;5.406;2022-09-24T15:42:58;17.50;99.90
16643;DHT22;8435;52.184;5.406;2022-09-24T15:45:25;17.50;99.90
16643;DHT22;8435;52.184;5.406;2022-09-24T15:47:56;17.50;99.90
16643;DHT22;8435;52.184;5.406;2022-09-24T15:50:30;17.50;99.90
16643;DHT22;8435;52.184;5.406;2022-09-24T15:53:00;17.50;99.90
16643;DHT22;8435;52.184;5.406;2022-09-24T15:55:29;17.50;99.90
16643;DHT22;8435;52.184;5.406;2022-09-24T15:57:58;17.40;99.90
16643;DHT22;8435;52.184;5.406;2022-09-24T16:00:30;17.50;99.90
16643;DHT22;8435;52.184;5.406;2022-09-24T16:02:57;17.50;99.90
16643;DHT22;8435;52.184;5.406;2022-09-24T16:05:26;17.40;99.90
16643;DHT22;8435;52.184;5.406;2022-09-24T16:07:53;17.40;99.90
16643;DHT22;8435;52.184;5.406;2022-09-24T16:10:20;17.40;99.90
16643;DHT22;8435;52.184;5.406;2022-09-24T16:12:48;17.40;99.90
16643;DHT22;8435;52.184;5.406;2022-09-24T16:15:18;17.40;99.90
16643;DHT22;8435;52.184;5.406;2022-09-24T16:17:46;17.40;99.90
16643;DHT22;8435;52.184;5.406;2022-09-24T16:20:18;17.50;99.90
16643;DHT22;8435;52.184;5.406;2022-09-24T16:22:46;17.40;99.90
16643;DHT22;8435;52.184;5.406;2022-09-24T16:25:13;17.50;99.90
16643;DHT22;8435;52.184;5.406;2022-09-24T16:27:40;17.40;99.90
16643;DHT22;8435;52.184;5.406;2022-09-24T16:30:09;17.50;99.90
16643;DHT22;8435;52.184;5.406;2022-09-24T16:32:36;17.50;99.90
16643;DHT22;8435;52.184;5.406;2022-09-24T16:35:04;17.50;99.90
16643;DHT22;8435;52.184;5.406;2022-09-24T16:37:31;17.40;99.90
16643;DHT22;8435;52.184;5.406;2022-09-24T16:39:59;17.40;99.90
16643;DHT22;8435;52.184;5.406;2022-09-24T16:42:27;17.40;99.90
16643;DHT22;8435;52.184;5.406;2022-09-24T16:44:54;17.40;99.90
16643;DHT22;8435;52.184;5.406;2022-09-24T16:47:21;17.50;99.90
16643;DHT22;8435;52.184;5.406;2022-09-24T16:49:49;17.40;99.90
16643;DHT22;8435;52.184;5.406;2022-09-24T16:52:18;17.40;99.90